Etusivu
METAR-TAF:

METAR-TAF

Lentoasemat :

Castres, Ranska

Leveyspiiri: 43-33-25N, Pituuspiiri: 2-17-21E, korkeus merenpinnasta: 239 m

Tämänhetkinen sää

Tämä raportti tehtiin 20 minuuttia sitten, kello 14.00 UTC
Tuuli 14 kn lännestä
Lämpötila 20°C
Kosteus 46%
Ilmanpaine 1019 hPa
Näkyvyys 10 km tai enemmän
ei pilviä alle 1500 m:ssä eikä cumulonimbus-pilviä

METAR: LFCK 121400Z AUTO 28014KT CAVOK 20/08 Q1019 NOSIG

Aika: 16:20 (14:20 UTC)

Sääennuste

Tämä raportti tehtiin 3 tuntia ja 20 minuuttia sitten, kello 11.00 UTC
Ennuste voimassa 12. päivästä klo 12 UTC - 12. päivään klo 21 UTC
Tuuli 12 kn lännestä/luoteesta
Näkyvyys 10 km tai enemmän
Hajanaisia pilviä 4500 ft:n korkeudessa
Hajonneita pilviä 7000 ft:n korkeudessa
Tulossa
12. päivästä klo 16 UTC - 12. päivään klo 18 UTC
Näkyvyys 10 km tai enemmän
ei pilviä alle 1500 m:ssä eikä cumulonimbus-pilviä

TAF: LFCK 121100Z 1212/1221 29012KT 9999 SCT045 BKN070 BECMG 1216/1218 CAVOK

Säähavainnot ja -ennusteet yli 4000 lentoasemalta (METAR- ja TAF-raportit).

Käytössä olevat sääasemat on merkitty karttaan keltaisilla ja punaisilla pisteillä.

Aseta hiiri pisteen päälle nähdäksesi sääaseman nimen.

Klikkaa sitten nähdäksesi säähavainnot ja -ennusteet.

Kartan vaihtaminen: klikkaa mustalla rastilla varustettuja vihreitä pisteitä, niin voit zoomata sisään; viivalla varustettua vihreää pistettä, niin voit zoomata ulos tai vihreitä nuolia, niin pääset viereisille kartoille.


METAR-TAF: